ADDS METAR Data INFO
IDs: Format: Raw Decoded Include TAF

Data at: 0226 UTC 14 Dec 2017

KSFQ 140215Z AUTO 19003KT 10SM OVC080 01/M08 A2981 RMK AO2 T00141085
KSFQ 140155Z AUTO 22004KT 10SM OVC080 01/M09 A2983 RMK AO2 T00131089
KSFQ 140135Z AUTO 19004KT 10SM OVC070 01/M09 A2980 RMK AO2 T00101087
KSFQ 140115Z AUTO 18007KT 10SM BKN080 01/M09 A2980 RMK AO2 T00061091
KSFQ 140055Z AUTO 18006KT 10SM CLR 00/M09 A2982 RMK AO2 T00001091
KSFQ 140035Z AUTO 15003KT 10SM CLR M01/M09 A2982 RMK AO2 T10101090
KSFQ 140015Z AUTO 18003KT 10SM CLR M01/M09 A2985 RMK AO2 T10101093
KSFQ 132355Z AUTO 16003KT 10SM CLR M01/M09 A2983 RMK AO2 T10141087 10035 21020
KSFQ 132335Z AUTO 16003KT 10SM CLR M02/M08 A2983 RMK AO2 T10171079
KSFQ 132315Z AUTO 00000KT 10SM CLR M01/M09 A2985 RMK AO2 T10131090
KSFQ 132255Z AUTO 00000KT 10SM CLR M01/M09 A2985 RMK AO2 T10081089
KSFQ 132235Z AUTO 19003KT 10SM CLR 01/M11 A2985 RMK AO2 T00081110
KSFQ 132215Z AUTO 23004KT 10SM CLR 02/M12 A2985 RMK AO2 T00151122
KSFQ 132155Z AUTO 23006KT 10SM CLR 02/M13 A2985 RMK AO2 T00211126
KSFQ 132135Z AUTO 24008KT 10SM CLR 02/M12 A2985 RMK AO2 T00241123
KSFQ 132115Z AUTO 24008KT 10SM CLR 03/M12 A2987 RMK AO2 T00251123
KSFQ 132055Z AUTO 26008KT 10SM CLR 03/M13 A2986 RMK AO2 T00271128
KSFQ 132035Z AUTO 24007KT 10SM CLR 03/M13 A2987 RMK AO2 T00271132
KSFQ 132015Z AUTO 22009KT 10SM CLR 03/M13 A2987 RMK AO2 T00291132
KSFQ 131955Z AUTO 28014G19KT 10SM CLR 03/M13 A2986 RMK AO2 T00311132
KSFQ 131935Z AUTO 26011KT 10SM CLR 03/M14 A2985 RMK AO2 T00331137
KSFQ 131915Z AUTO 26013KT 10SM CLR 03/M14 A2985 RMK AO2 T00301140
KSFQ 131855Z AUTO 26010G18KT 10SM CLR 03/M14 A2986 RMK AO2 T00301137
KSFQ 131835Z AUTO 27012KT 10SM CLR 03/M13 A2987 RMK AO2 T00291131
KSFQ 131815Z AUTO 25012G16KT 10SM CLR 03/M13 A2988 RMK AO2 T00291129
KSFQ 131755Z AUTO 27014KT 10SM CLR 02/M13 A2989 RMK AO2 T00231129 10025 21041
KSFQ 131735Z AUTO 28013G20KT 10SM CLR 02/M13 A2989 RMK AO2 T00201129
KSFQ 131715Z AUTO 26016G21KT 10SM CLR 02/M13 A2990 RMK AO2 T00161127
KSFQ 131655Z AUTO 27016G19KT 10SM CLR 02/M12 A2990 RMK AO2 T00161124
KSFQ 131635Z AUTO 28015G20KT 10SM CLR 01/M13 A2991 RMK AO2 T00101130
KSFQ 131615Z AUTO 27012G20KT 10SM CLR 01/M13 A2993 RMK AO2 T00061130
KSFQ 131555Z AUTO 27015G22KT 10SM CLR 00/M13 A2993 RMK AO2 T00031135
KSFQ 131535Z AUTO 28015KT 10SM CLR 00/M13 A2995 RMK AO2 T00011133
KSFQ 131515Z AUTO 28017G22KT 10SM CLR 00/M14 A2995 RMK AO2 T00001141
KSFQ 131455Z AUTO 30013G20KT 10SM CLR 00/M14 A2995 RMK AO2 T10031143
KSFQ 131435Z AUTO 29013G20KT 10SM CLR M01/M15 A2995 RMK AO2 T10061146
KSFQ 131415Z AUTO 29012G20KT 10SM CLR M01/M14 A2995 RMK AO2 T10091141
KSFQ 131355Z AUTO 28012G17KT 10SM CLR M01/M14 A2995 RMK AO2 T10131137
KSFQ 131335Z AUTO 29012G15KT 10SM CLR M02/M13 A2994 RMK AO2 T10171133
KSFQ 131315Z AUTO 28009G14KT 10SM CLR M02/M13 A2994 RMK AO2 T10221127
KSFQ 131255Z AUTO 28011KT 10SM CLR M03/M13 A2994 RMK AO2 T10261126
KSFQ 131235Z AUTO 28008KT 10SM CLR M03/M12 A2993 RMK AO2 T10301123
KSFQ 131215Z AUTO 26009KT 10SM CLR M03/M12 A2992 RMK AO2 T10351119
KSFQ 131155Z AUTO 26007KT 10SM CLR M04/M12 A2992 RMK AO2 T10411117 11009 21044
KSFQ 131135Z AUTO 26007KT 10SM CLR M04/M12 A2990 RMK AO2 T10371119
KSFQ 131115Z AUTO 27008KT 10SM CLR M04/M12 A2989 RMK AO2 T10391117
KSFQ 131055Z AUTO 26007KT 10SM CLR M04/M12 A2988 RMK AO2 T10431118
KSFQ 131035Z AUTO 00000KT 10SM CLR M04/M12 A2987 RMK AO2 T10401124
KSFQ 131015Z AUTO 00000KT 10SM CLR M04/M13 A2986 RMK AO2 T10361130
KSFQ 130955Z AUTO 00000KT 10SM CLR M04/M13 A2985 RMK AO2 T10401130
KSFQ 130935Z AUTO 00000KT 10SM CLR M04/M12 A2985 RMK AO2 T10411125
KSFQ 130915Z AUTO 00000KT 10SM CLR M04/M13 A2984 RMK AO2 T10391129
KSFQ 130855Z AUTO 00000KT 10SM CLR M03/M13 A2984 RMK AO2 T10331135
KSFQ 130835Z AUTO 00000KT 10SM CLR M03/M14 A2983 RMK AO2 T10291142
KSFQ 130815Z AUTO 30005KT 10SM CLR M02/M15 A2983 RMK AO2 T10251147
KSFQ 130755Z AUTO 31007KT 10SM CLR M02/M15 A2983 RMK AO2 T10221153
KSFQ 130735Z AUTO 30010KT 10SM CLR M02/M15 A2983 RMK AO2 T10201152
KSFQ 130715Z AUTO 33010G17KT 10SM CLR M02/M15 A2981 RMK AO2 T10181153
KSFQ 130655Z AUTO 32007KT 10SM CLR M02/M14 A2981 RMK AO2 T10161145
KSFQ 130635Z AUTO 31012G17KT 10SM CLR M01/M14 A2980 RMK AO2 T10151144
KSFQ 130615Z AUTO 31012G17KT 10SM CLR M01/M14 A2979 RMK AO2 T10121141
KSFQ 130555Z AUTO 30013G23KT 10SM CLR M01/M15 A2978 RMK AO2 T10091148 10083 21009
KSFQ 130535Z AUTO 30017G23KT 10SM SCT060 M01/M15 A2977 RMK AO2 T10061148
KSFQ 130515Z AUTO 31016G24KT 10SM BKN060 00/M13 A2976 RMK AO2 T00001132
KSFQ 130455Z AUTO 33010G21KT 290V360 10SM OVC060 00/M13 A2975 RMK AO2 LTG DSNT E T00021129 401160002
KSFQ 130435Z AUTO 32013G18KT 10SM OVC060 01/M11 A2974 RMK AO2 T00061115
KSFQ 130415Z AUTO 30014G19KT 10SM OVC060 01/M10 A2973 RMK AO2 LTG DSNT E T00101103
KSFQ 130355Z AUTO 30009G21KT 10SM SCT060 02/M09 A2972 RMK AO2 T00151091
KSFQ 130335Z AUTO 29010G16KT 10SM SCT050 02/M07 A2971 RMK AO2 T00191073
KSFQ 130310Z AUTO 30011G14KT 10SM -SN SCT029 BKN042 OVC050 02/M03 A2970 RMK AO2 T00211030
KSFQ 130255Z AUTO 30012G16KT 7SM -SN SCT022 BKN040 OVC050 03/M02 A2969 RMK AO2 T00251025
KSFQ 130235Z AUTO 32010G15KT 10SM SCT030 BKN050 OVC065 03/M02 A2968 RMK AO2 T00331021
KSFQ 130215Z AUTO 34011G21KT 310V010 10SM SCT030 BKN039 OVC085 04/M01 A2967 RMK AO2 T00391009
KSFQ 130155Z AUTO 29008G14KT 10SM SCT065 OVC085 05/M03 A2965 RMK AO2 LTG DSNT E T00461026
KSFQ 130135Z AUTO 31010G16KT 10SM SCT027 SCT055 OVC085 05/M01 A2964 RMK AO2 LTG DSNT SE T00461013
KSFQ 130115Z AUTO 32011G23KT 10SM BKN050 OVC075 05/00 A2963 RMK AO2 T00530000
KSFQ 130055Z AUTO 30021G29KT 10SM SCT060 OVC070 08/M02 A2962 RMK AO2 LTG DSNT E AND SE T00751024
KSFQ 130035Z AUTO 29016G24KT 10SM SCT060 OVC080 08/M03 A2961 RMK AO2 LTG DSNT SE T00821029
KSFQ 130015Z AUTO 30015G23KT 10SM SCT080 OVC100 08/M02 A2960 RMK AO2 LTG DSNT SE T00831018
KSFQ 122355Z AUTO 28006KT 10SM OVC100 08/00 A2959 RMK AO2 LTG DSNT SE T00841005 10116 20084
KSFQ 122335Z AUTO 29008KT 10SM OVC090 09/00 A2959 RMK AO2 LTG DSNT SE T00871003
KSFQ 122315Z AUTO 28011G14KT 10SM OVC090 09/00 A2958 RMK AO2 LTG DSNT SE AND S T00900000
KSFQ 122255Z AUTO 28008G18KT 10SM OVC080 09/00 A2957 RMK AO2 T00940002
KSFQ 122235Z AUTO 27010KT 10SM SCT065 SCT070 OVC080 10/02 A2958 RMK AO2 T00960016
KSFQ 122215Z AUTO 26005KT 10SM OVC065 09/03 A2957 RMK AO2 LTG DSNT SE T00900031
KSFQ 122155Z AUTO 24004KT 10SM OVC065 10/03 A2956 RMK AO2 T00950027
KSFQ 122135Z AUTO 24005KT 10SM SCT065 OVC080 10/03 A2956 RMK AO2 LTG DSNT S T00970025
KSFQ 122115Z AUTO 26007KT 10SM OVC080 10/02 A2957 RMK AO2 LTG DSNT S T01010022
KSFQ 122055Z AUTO 25007KT 10SM SCT060 OVC080 11/02 A2956 RMK AO2 LTG DSNT E AND S T01050016
KSFQ 122035Z AUTO 26007KT 10SM SCT080 OVC110 11/02 A2956 RMK AO2 LTG DSNT E THRU S T01050015
KSFQ 122015Z AUTO 28009KT 10SM SCT047 BKN110 11/01 A2956 RMK AO2 T01090011
KSFQ 121955Z AUTO 27010G15KT 10SM SCT047 SCT120 11/02 A2956 RMK AO2 T01100015
KSFQ 121935Z AUTO 28010KT 10SM SCT120 11/02 A2956 RMK AO2 T01130024
KSFQ 121915Z AUTO 27009KT 10SM CLR 12/02 A2956 RMK AO2 T01150024
KSFQ 121855Z AUTO 26010KT 10SM CLR 12/02 A2957 RMK AO2 T01150023
KSFQ 121835Z AUTO 26010KT 10SM CLR 12/03 A2957 RMK AO2 T01150029
KSFQ 121815Z AUTO 25012G16KT 10SM CLR 12/03 A2957 RMK AO2 T01150032
KSFQ 121755Z AUTO 26012G16KT 10SM CLR 11/03 A2958 RMK AO2 LTG DSNT E T01130034 10113 20035
KSFQ 121735Z AUTO 24010KT 10SM CLR 11/04 A2959 RMK AO2 T01080036
KSFQ 121715Z AUTO 25009KT 10SM CLR 11/04 A2960 RMK AO2 T01060035
KSFQ 121655Z AUTO 24011G15KT 10SM CLR 11/04 A2961 RMK AO2 T01060036
KSFQ 121635Z AUTO 24010KT 10SM CLR 11/04 A2962 RMK AO2 T01070038
KSFQ 121615Z AUTO 24009KT 10SM CLR 11/04 A2962 RMK AO2 T01060036
KSFQ 121555Z AUTO 23009KT 10SM CLR 10/04 A2963 RMK AO2 T01040036
KSFQ 121535Z AUTO 24010KT 10SM CLR 10/04 A2965 RMK AO2 T01020035
KSFQ 121515Z AUTO 24010G15KT 10SM CLR 10/04 A2965 RMK AO2 LTG DSNT E T01020037
KSFQ 121455Z AUTO 23011G17KT 10SM CLR 09/03 A2966 RMK AO2 LTG DSNT E T00910031
KSFQ 121435Z AUTO 24012G15KT 10SM CLR 08/03 A2967 RMK AO2 T00840031